SWA967 KBUR-KLAS
Flight info
| Callsign | SWA967 |
|---|---|
| Flight time | 0h 45m |
| Altitude | 25000 |
| Route | SLAPP2 MISEN RNDRZ4 |
| Aircraft | B737/M-SADE2E3GIJ4RWZ/LB1D1 |
Departure
| Time | 2026-05-05 23:57 |
|---|---|
| Airport | Hollywood Burbank/Bob Hope Airport (KBUR) |
Arrival
| Time | 2026-05-06 00:43 |
|---|---|
| Airport | Harry Reid International Airport (KLAS) |
| Time | Latitude | Longitude | Altitude | Speed | Heading |
|---|---|---|---|---|---|
| 2026-05-05 23:23 | 34.19679 | -118.35243 | 709 ft | 0 kts | 180° |
| 2026-05-05 23:47 | 34.19681 | -118.35243 | 709 ft | 2 kts | 180° |
| 2026-05-05 23:48 | 34.19704 | -118.35239 | 713 ft | 4 kts | 213° |
| 2026-05-05 23:48 | 34.19717 | -118.35216 | 697 ft | 4 kts | 266° |
| 2026-05-05 23:48 | 34.19717 | -118.35207 | 699 ft | 0 kts | 271° |
| 2026-05-05 23:51 | 34.19718 | -118.35236 | 697 ft | 8 kts | 271° |
| 2026-05-05 23:52 | 34.19719 | -118.35311 | 711 ft | 9 kts | 271° |
| 2026-05-05 23:52 | 34.19720 | -118.35393 | 710 ft | 11 kts | 271° |
| 2026-05-05 23:52 | 34.19750 | -118.35487 | 711 ft | 14 kts | 329° |
| 2026-05-05 23:52 | 34.19838 | -118.35522 | 714 ft | 14 kts | 345° |
| 2026-05-05 23:53 | 34.19927 | -118.35552 | 718 ft | 14 kts | 344° |
| 2026-05-05 23:53 | 34.20023 | -118.35578 | 719 ft | 14 kts | 347° |
| 2026-05-05 23:53 | 34.20118 | -118.35604 | 725 ft | 14 kts | 347° |
| 2026-05-05 23:53 | 34.20220 | -118.35633 | 731 ft | 15 kts | 347° |
| 2026-05-05 23:54 | 34.20320 | -118.35661 | 734 ft | 14 kts | 347° |
| 2026-05-05 23:54 | 34.20416 | -118.35688 | 741 ft | 14 kts | 347° |
| 2026-05-05 23:54 | 34.20512 | -118.35715 | 746 ft | 14 kts | 347° |
| 2026-05-05 23:54 | 34.20607 | -118.35740 | 750 ft | 14 kts | 348° |
| 2026-05-05 23:55 | 34.20702 | -118.35765 | 757 ft | 15 kts | 348° |
| 2026-05-05 23:55 | 34.20811 | -118.35795 | 769 ft | 16 kts | 347° |
| 2026-05-05 23:55 | 34.20916 | -118.35825 | 776 ft | 15 kts | 347° |
| 2026-05-05 23:55 | 34.21017 | -118.35853 | 782 ft | 15 kts | 348° |
| 2026-05-05 23:56 | 34.21083 | -118.35870 | 782 ft | 15 kts | 347° |
| 2026-05-05 23:56 | 34.21168 | -118.35923 | 784 ft | 14 kts | 310° |
| 2026-05-05 23:56 | 34.21162 | -118.36026 | 785 ft | 18 kts | 194° |
| 2026-05-05 23:56 | 34.20931 | -118.35965 | 781 ft | 66 kts | 167° |
| 2026-05-05 23:57 | 34.20292 | -118.35793 | 732 ft | 129 kts | 168° |
| 2026-05-05 23:57 | 34.19257 | -118.35516 | 859 ft | 164 kts | 170° |
| 2026-05-05 23:57 | 34.18055 | -118.35333 | 1193 ft | 191 kts | 182° |
| 2026-05-05 23:57 | 34.16650 | -118.35305 | 1499 ft | 213 kts | 193° |
| 2026-05-05 23:58 | 34.15395 | -118.36211 | 2125 ft | 216 kts | 220° |
| 2026-05-05 23:58 | 34.14172 | -118.37458 | 2465 ft | 247 kts | 220° |
| 2026-05-05 23:58 | 34.12856 | -118.38850 | 3292 ft | 251 kts | 223° |
| 2026-05-05 23:58 | 34.11575 | -118.40270 | 3774 ft | 250 kts | 223° |
| 2026-05-05 23:59 | 34.10594 | -118.41373 | 4282 ft | 257 kts | 227° |
| 2026-05-05 23:59 | 34.09748 | -118.43252 | 5172 ft | 260 kts | 261° |
| 2026-05-05 23:59 | 34.09920 | -118.45392 | 6172 ft | 260 kts | 291° |
| 2026-05-05 23:59 | 34.10901 | -118.47231 | 7124 ft | 263 kts | 317° |
| 2026-05-06 00:00 | 34.12474 | -118.48374 | 8047 ft | 268 kts | 343° |
| 2026-05-06 00:00 | 34.14345 | -118.48542 | 9044 ft | 274 kts | 7° |
| 2026-05-06 00:00 | 34.16153 | -118.47923 | 10193 ft | 273 kts | 19° |
| 2026-05-06 00:00 | 34.17970 | -118.47034 | 10843 ft | 293 kts | 22° |
| 2026-05-06 00:01 | 34.19950 | -118.46010 | 11084 ft | 324 kts | 22° |
| 2026-05-06 00:01 | 34.22105 | -118.44899 | 11459 ft | 346 kts | 22° |
| 2026-05-06 00:01 | 34.24365 | -118.43751 | 12223 ft | 355 kts | 22° |
| 2026-05-06 00:01 | 34.26658 | -118.42605 | 13127 ft | 360 kts | 22° |
| 2026-05-06 00:02 | 34.28989 | -118.41453 | 14009 ft | 361 kts | 22° |
| 2026-05-06 00:02 | 34.31326 | -118.40319 | 14598 ft | 359 kts | 22° |
| 2026-05-06 00:02 | 34.33639 | -118.39174 | 14858 ft | 368 kts | 22° |
| 2026-05-06 00:02 | 34.36050 | -118.37986 | 15511 ft | 377 kts | 22° |
| 2026-05-06 00:03 | 34.38455 | -118.36805 | 16401 ft | 380 kts | 21° |
| 2026-05-06 00:03 | 34.40985 | -118.35611 | 17268 ft | 386 kts | 20° |
| 2026-05-06 00:03 | 34.43513 | -118.34464 | 18092 ft | 392 kts | 20° |
| 2026-05-06 00:03 | 34.46033 | -118.33174 | 18686 ft | 394 kts | 27° |
| 2026-05-06 00:04 | 34.48310 | -118.31419 | 18927 ft | 388 kts | 38° |
| 2026-05-06 00:04 | 34.50368 | -118.29372 | 18974 ft | 384 kts | 40° |
| 2026-05-06 00:04 | 34.52429 | -118.27246 | 19041 ft | 393 kts | 40° |
| 2026-05-06 00:04 | 34.54534 | -118.25078 | 19611 ft | 398 kts | 40° |
| 2026-05-06 00:05 | 34.58779 | -118.20777 | 21379 ft | 398 kts | 40° |
| 2026-05-06 00:05 | 34.60913 | -118.18636 | 22184 ft | 399 kts | 40° |
| 2026-05-06 00:05 | 34.63071 | -118.16469 | 22859 ft | 404 kts | 41° |
| 2026-05-06 00:06 | 34.65036 | -118.14007 | 23416 ft | 410 kts | 54° |
| 2026-05-06 00:06 | 34.66515 | -118.11029 | 23964 ft | 414 kts | 64° |
| 2026-05-06 00:06 | 34.67497 | -118.07704 | 24472 ft | 419 kts | 76° |
| 2026-05-06 00:06 | 34.68056 | -118.04231 | 24943 ft | 421 kts | 78° |
| 2026-05-06 00:07 | 34.68593 | -118.00739 | 24969 ft | 430 kts | 78° |
| 2026-05-06 00:07 | 34.69152 | -117.97150 | 24972 ft | 435 kts | 79° |
| 2026-05-06 00:07 | 34.69458 | -117.93471 | 24975 ft | 437 kts | 84° |
| 2026-05-06 00:07 | 34.69659 | -117.89793 | 24965 ft | 436 kts | 85° |
| 2026-05-06 00:08 | 34.69853 | -117.86109 | 24959 ft | 437 kts | 84° |
| 2026-05-06 00:08 | 34.70059 | -117.82422 | 24932 ft | 436 kts | 84° |
| 2026-05-06 00:08 | 34.70276 | -117.78729 | 24933 ft | 436 kts | 84° |
| 2026-05-06 00:08 | 34.70494 | -117.75055 | 24927 ft | 436 kts | 85° |
| 2026-05-06 00:09 | 34.70663 | -117.71387 | 24925 ft | 437 kts | 85° |
| 2026-05-06 00:09 | 34.70798 | -117.67700 | 24911 ft | 437 kts | 86° |
| 2026-05-06 00:09 | 34.70926 | -117.64022 | 24946 ft | 436 kts | 86° |
| 2026-05-06 00:09 | 34.71060 | -117.60343 | 24949 ft | 436 kts | 86° |
| 2026-05-06 00:10 | 34.71200 | -117.56662 | 24962 ft | 435 kts | 85° |
| 2026-05-06 00:10 | 34.71351 | -117.52988 | 24973 ft | 435 kts | 84° |
| 2026-05-06 00:10 | 34.71778 | -117.49367 | 24977 ft | 433 kts | 76° |
| 2026-05-06 00:10 | 34.72641 | -117.45862 | 24990 ft | 432 kts | 71° |
| 2026-05-06 00:11 | 34.73590 | -117.42398 | 24984 ft | 431 kts | 70° |
| 2026-05-06 00:11 | 34.74541 | -117.38944 | 24977 ft | 430 kts | 70° |
| 2026-05-06 00:11 | 34.75482 | -117.35497 | 24974 ft | 430 kts | 70° |
| 2026-05-06 00:11 | 34.76414 | -117.32047 | 24968 ft | 429 kts | 71° |
| 2026-05-06 00:12 | 34.77337 | -117.28595 | 24962 ft | 429 kts | 71° |
| 2026-05-06 00:12 | 34.78243 | -117.25184 | 24958 ft | 429 kts | 71° |
| 2026-05-06 00:12 | 34.79157 | -117.21728 | 24943 ft | 429 kts | 71° |
| 2026-05-06 00:12 | 34.80071 | -117.18267 | 24903 ft | 429 kts | 71° |
| 2026-05-06 00:13 | 34.80969 | -117.14857 | 24897 ft | 429 kts | 71° |
| 2026-05-06 00:13 | 34.81879 | -117.11401 | 24901 ft | 429 kts | 71° |
| 2026-05-06 00:13 | 34.82787 | -117.07949 | 24893 ft | 428 kts | 71° |
| 2026-05-06 00:13 | 34.83695 | -117.04492 | 24900 ft | 428 kts | 71° |
| 2026-05-06 00:14 | 34.84600 | -117.01043 | 24909 ft | 428 kts | 71° |
| 2026-05-06 00:14 | 34.85502 | -116.97596 | 24905 ft | 428 kts | 71° |
| 2026-05-06 00:14 | 34.86409 | -116.94133 | 24906 ft | 428 kts | 71° |
| 2026-05-06 00:14 | 34.87300 | -116.90724 | 24902 ft | 428 kts | 71° |
| 2026-05-06 00:15 | 34.88214 | -116.87219 | 24905 ft | 428 kts | 71° |
| 2026-05-06 00:15 | 34.89113 | -116.83769 | 24910 ft | 428 kts | 71° |
| 2026-05-06 00:15 | 34.90002 | -116.80356 | 24913 ft | 428 kts | 71° |
| 2026-05-06 00:15 | 34.90900 | -116.76905 | 24911 ft | 428 kts | 71° |
| 2026-05-06 00:16 | 34.91906 | -116.73489 | 24907 ft | 427 kts | 65° |
| 2026-05-06 00:16 | 34.93291 | -116.70278 | 24904 ft | 426 kts | 57° |
| 2026-05-06 00:16 | 34.94919 | -116.67395 | 24903 ft | 426 kts | 55° |
| 2026-05-06 00:16 | 34.96633 | -116.64426 | 24893 ft | 427 kts | 55° |
| 2026-05-06 00:17 | 34.98334 | -116.61470 | 24884 ft | 427 kts | 55° |
| 2026-05-06 00:17 | 34.99695 | -116.59084 | 24887 ft | 427 kts | 55° |
| 2026-05-06 00:17 | 35.01333 | -116.56195 | 24886 ft | 427 kts | 55° |
| 2026-05-06 00:17 | 35.02920 | -116.53375 | 24879 ft | 425 kts | 55° |
| 2026-05-06 00:18 | 35.04597 | -116.50391 | 24869 ft | 424 kts | 55° |
| 2026-05-06 00:18 | 35.06246 | -116.47454 | 24856 ft | 424 kts | 55° |
| 2026-05-06 00:18 | 35.07908 | -116.44492 | 24851 ft | 423 kts | 55° |
| 2026-05-06 00:18 | 35.09576 | -116.41523 | 24852 ft | 423 kts | 55° |
| 2026-05-06 00:19 | 35.11275 | -116.38856 | 24857 ft | 423 kts | 48° |
| 2026-05-06 00:19 | 35.13298 | -116.36246 | 24857 ft | 423 kts | 46° |
| 2026-05-06 00:19 | 35.15355 | -116.33670 | 24858 ft | 423 kts | 46° |
| 2026-05-06 00:19 | 35.17402 | -116.31094 | 24860 ft | 423 kts | 46° |
| 2026-05-06 00:20 | 35.19438 | -116.28493 | 24856 ft | 423 kts | 47° |
| 2026-05-06 00:20 | 35.21461 | -116.25881 | 24849 ft | 423 kts | 47° |
| 2026-05-06 00:20 | 35.23470 | -116.23260 | 24863 ft | 422 kts | 48° |
| 2026-05-06 00:20 | 35.25430 | -116.20590 | 24861 ft | 421 kts | 49° |
| 2026-05-06 00:21 | 35.27176 | -116.18171 | 24867 ft | 421 kts | 49° |
| 2026-05-06 00:21 | 35.29115 | -116.15489 | 24870 ft | 421 kts | 49° |
| 2026-05-06 00:21 | 35.31070 | -116.12800 | 24879 ft | 421 kts | 49° |
| 2026-05-06 00:21 | 35.32997 | -116.10155 | 24873 ft | 421 kts | 49° |
| 2026-05-06 00:22 | 35.34956 | -116.07467 | 24205 ft | 425 kts | 48° |
| 2026-05-06 00:22 | 35.36915 | -116.04776 | 23383 ft | 420 kts | 48° |
| 2026-05-06 00:22 | 35.38844 | -116.02124 | 22368 ft | 414 kts | 48° |
| 2026-05-06 00:22 | 35.40748 | -115.99503 | 21446 ft | 409 kts | 48° |
| 2026-05-06 00:23 | 35.42629 | -115.96914 | 20548 ft | 405 kts | 48° |
| 2026-05-06 00:23 | 35.44454 | -115.94397 | 19693 ft | 405 kts | 48° |
| 2026-05-06 00:23 | 35.45850 | -115.92471 | 19043 ft | 405 kts | 48° |
| 2026-05-06 00:23 | 35.47433 | -115.90284 | 18263 ft | 405 kts | 48° |
| 2026-05-06 00:24 | 35.49184 | -115.87866 | 17314 ft | 402 kts | 47° |
| 2026-05-06 00:24 | 35.50777 | -115.85664 | 16579 ft | 397 kts | 47° |
| 2026-05-06 00:24 | 35.52380 | -115.83445 | 16506 ft | 375 kts | 47° |
| 2026-05-06 00:24 | 35.53782 | -115.81505 | 16346 ft | 360 kts | 47° |
| 2026-05-06 00:25 | 35.55381 | -115.79289 | 16182 ft | 342 kts | 47° |
| 2026-05-06 00:25 | 35.56918 | -115.77160 | 16054 ft | 327 kts | 47° |
| 2026-05-06 00:25 | 35.58322 | -115.75213 | 15915 ft | 313 kts | 47° |
| 2026-05-06 00:25 | 35.59716 | -115.73290 | 15794 ft | 301 kts | 47° |
| 2026-05-06 00:26 | 35.61063 | -115.71470 | 15652 ft | 295 kts | 46° |
| 2026-05-06 00:26 | 35.62294 | -115.69814 | 15533 ft | 294 kts | 46° |
| 2026-05-06 00:26 | 35.63682 | -115.67947 | 15403 ft | 299 kts | 46° |
| 2026-05-06 00:26 | 35.65093 | -115.66046 | 15261 ft | 303 kts | 46° |
| 2026-05-06 00:27 | 35.66508 | -115.64137 | 15104 ft | 305 kts | 46° |
| 2026-05-06 00:27 | 35.67938 | -115.62206 | 14959 ft | 305 kts | 47° |
| 2026-05-06 00:27 | 35.69367 | -115.60272 | 14788 ft | 305 kts | 47° |
| 2026-05-06 00:27 | 35.70792 | -115.58341 | 14638 ft | 304 kts | 47° |
| 2026-05-06 00:28 | 35.72218 | -115.56416 | 14483 ft | 303 kts | 45° |
| 2026-05-06 00:28 | 35.73832 | -115.54775 | 14326 ft | 301 kts | 31° |
| 2026-05-06 00:28 | 35.75644 | -115.53493 | 14181 ft | 300 kts | 29° |
| 2026-05-06 00:28 | 35.77467 | -115.52253 | 14034 ft | 299 kts | 28° |
| 2026-05-06 00:29 | 35.79284 | -115.51015 | 13894 ft | 298 kts | 29° |
| 2026-05-06 00:29 | 35.81074 | -115.49781 | 13818 ft | 294 kts | 29° |
| 2026-05-06 00:29 | 35.82852 | -115.48547 | 13697 ft | 292 kts | 29° |
| 2026-05-06 00:29 | 35.84619 | -115.47313 | 13545 ft | 292 kts | 29° |
| 2026-05-06 00:30 | 35.86382 | -115.46078 | 13388 ft | 291 kts | 29° |
| 2026-05-06 00:30 | 35.88119 | -115.44859 | 13256 ft | 291 kts | 29° |
| 2026-05-06 00:30 | 35.89880 | -115.43622 | 13097 ft | 290 kts | 29° |
| 2026-05-06 00:30 | 35.91639 | -115.42388 | 12816 ft | 294 kts | 29° |
| 2026-05-06 00:31 | 35.93435 | -115.41136 | 12501 ft | 297 kts | 29° |
| 2026-05-06 00:31 | 35.95237 | -115.39879 | 12163 ft | 296 kts | 29° |
| 2026-05-06 00:31 | 35.97015 | -115.38639 | 11812 ft | 291 kts | 28° |
| 2026-05-06 00:31 | 35.98182 | -115.37824 | 11588 ft | 287 kts | 29° |
| 2026-05-06 00:32 | 35.99707 | -115.36670 | 11282 ft | 276 kts | 39° |
| 2026-05-06 00:32 | 36.00871 | -115.34821 | 10993 ft | 266 kts | 62° |
| 2026-05-06 00:32 | 36.01423 | -115.32667 | 10813 ft | 264 kts | 81° |
| 2026-05-06 00:32 | 36.01441 | -115.30390 | 10654 ft | 265 kts | 91° |
| 2026-05-06 00:33 | 36.01328 | -115.28137 | 10450 ft | 259 kts | 92° |
| 2026-05-06 00:33 | 36.01199 | -115.25948 | 10262 ft | 253 kts | 91° |
| 2026-05-06 00:33 | 36.01075 | -115.23793 | 10091 ft | 250 kts | 91° |
| 2026-05-06 00:33 | 36.00958 | -115.21659 | 9928 ft | 251 kts | 92° |
| 2026-05-06 00:34 | 36.00847 | -115.19537 | 9757 ft | 252 kts | 91° |
| 2026-05-06 00:34 | 36.00736 | -115.17361 | 9561 ft | 252 kts | 92° |
| 2026-05-06 00:34 | 36.00626 | -115.15195 | 9382 ft | 252 kts | 91° |
| 2026-05-06 00:34 | 36.00517 | -115.13030 | 9194 ft | 253 kts | 92° |
| 2026-05-06 00:35 | 36.00407 | -115.10862 | 9005 ft | 253 kts | 91° |
| 2026-05-06 00:35 | 36.00297 | -115.08689 | 8775 ft | 254 kts | 92° |
| 2026-05-06 00:35 | 36.00186 | -115.06512 | 8547 ft | 255 kts | 93° |
| 2026-05-06 00:35 | 36.00074 | -115.04333 | 8315 ft | 253 kts | 92° |
| 2026-05-06 00:36 | 35.99963 | -115.02172 | 8072 ft | 250 kts | 92° |
| 2026-05-06 00:36 | 35.99886 | -115.00025 | 7765 ft | 251 kts | 90° |
| 2026-05-06 00:36 | 35.99876 | -114.97912 | 7448 ft | 252 kts | 90° |
| 2026-05-06 00:36 | 35.99873 | -114.95747 | 7145 ft | 253 kts | 90° |
| 2026-05-06 00:37 | 35.99982 | -114.93571 | 6812 ft | 255 kts | 74° |
| 2026-05-06 00:37 | 36.00866 | -114.91716 | 6501 ft | 252 kts | 43° |
| 2026-05-06 00:37 | 36.02272 | -114.90490 | 6183 ft | 243 kts | 22° |
| 2026-05-06 00:37 | 36.03864 | -114.90169 | 5869 ft | 226 kts | 351° |
| 2026-05-06 00:38 | 36.05312 | -114.90678 | 5592 ft | 210 kts | 331° |
| 2026-05-06 00:38 | 36.06558 | -114.91604 | 5315 ft | 207 kts | 317° |
| 2026-05-06 00:38 | 36.07223 | -114.93076 | 5095 ft | 191 kts | 276° |
| 2026-05-06 00:38 | 36.07337 | -114.94632 | 4865 ft | 179 kts | 274° |
| 2026-05-06 00:39 | 36.07384 | -114.96119 | 4657 ft | 168 kts | 270° |
| 2026-05-06 00:39 | 36.07391 | -114.97568 | 4460 ft | 168 kts | 270° |
| 2026-05-06 00:39 | 36.07390 | -114.98969 | 4220 ft | 156 kts | 269° |
| 2026-05-06 00:39 | 36.07387 | -115.00234 | 4072 ft | 138 kts | 269° |
| 2026-05-06 00:40 | 36.07384 | -115.01397 | 3858 ft | 132 kts | 269° |
| 2026-05-06 00:40 | 36.07384 | -115.02511 | 3711 ft | 127 kts | 267° |
| 2026-05-06 00:40 | 36.07381 | -115.03237 | 3592 ft | 127 kts | 266° |
| 2026-05-06 00:40 | 36.07378 | -115.04093 | 3465 ft | 131 kts | 269° |
| 2026-05-06 00:41 | 36.07376 | -115.05231 | 3288 ft | 132 kts | 267° |
| 2026-05-06 00:41 | 36.07373 | -115.06347 | 3094 ft | 130 kts | 268° |
| 2026-05-06 00:41 | 36.07372 | -115.07481 | 2945 ft | 137 kts | 268° |
| 2026-05-06 00:41 | 36.07371 | -115.08661 | 2768 ft | 137 kts | 269° |
| 2026-05-06 00:42 | 36.07369 | -115.09851 | 2546 ft | 138 kts | 269° |
| 2026-05-06 00:42 | 36.07368 | -115.11002 | 2362 ft | 130 kts | 269° |
| 2026-05-06 00:42 | 36.07368 | -115.12102 | 2225 ft | 130 kts | 270° |
| 2026-05-06 00:42 | 36.07367 | -115.13246 | 2070 ft | 127 kts | 269° |
| 2026-05-06 00:43 | 36.07368 | -115.14161 | 2084 ft | 87 kts | 270° |
| 2026-05-06 00:43 | 36.07367 | -115.14712 | 2092 ft | 45 kts | 272° |
| 2026-05-06 00:43 | 36.07409 | -115.14906 | 2096 ft | 7 kts | 290° |
| 2026-05-06 00:43 | 36.07447 | -115.15015 | 2097 ft | 15 kts | 301° |
| 2026-05-06 00:44 | 36.07518 | -115.15106 | 2101 ft | 15 kts | 324° |
| 2026-05-06 00:44 | 36.07602 | -115.15169 | 2108 ft | 14 kts | 345° |
| 2026-05-06 00:44 | 36.07697 | -115.15191 | 2107 ft | 14 kts | 349° |
| 2026-05-06 00:44 | 36.07798 | -115.15200 | 2100 ft | 9 kts | 39° |
| 2026-05-06 00:45 | 36.07806 | -115.15120 | 2099 ft | 9 kts | 91° |
| 2026-05-06 00:45 | 36.07803 | -115.15031 | 2099 ft | 13 kts | 92° |
| 2026-05-06 00:45 | 36.07799 | -115.14898 | 2098 ft | 17 kts | 92° |
| 2026-05-06 00:45 | 36.07865 | -115.14800 | 2096 ft | 16 kts | 26° |
| 2026-05-06 00:46 | 36.07972 | -115.14798 | 2096 ft | 16 kts | 337° |
| 2026-05-06 00:46 | 36.08058 | -115.14845 | 2096 ft | 12 kts | 336° |
| 2026-05-06 00:46 | 36.08109 | -115.14849 | 2096 ft | 7 kts | 32° |
| 2026-05-06 00:46 | 36.08119 | -115.14832 | 2096 ft | 1 kts | 68° |
| 2026-05-06 00:47 | 36.08127 | -115.14811 | 2096 ft | 2 kts | 62° |
| 2026-05-06 00:47 | 36.08136 | -115.14788 | 2096 ft | 3 kts | 63° |
| 2026-05-06 00:47 | 36.08137 | -115.14787 | 2096 ft | 0 kts | 63° |